Latest Weather Observations for Troughton Island

IDD60801

Issued at 8:01 pm CST Wednesday 29 June 2016 (issued every 30 minutes, with the page automatically refreshed every 10 minutes)

About weather observations | Map of weather stations | Latest weather observations for NT | Other Formats
Station Details ID: 001007 Name: TROUGHTON ISLAND Lat: -13.75 Lon: 126.15 Height: 6.0 m
Data from the previous 72 hours. | See also: Recent months at Troughton Island
Date/Time
CST
Temp
°C
App
Temp
°C
Dew
Point
°C
Rel
Hum
%
Delta-T
°C
Wind Press
QNH
hPa
Press
MSL
hPa
Rain since
9am
mm
Dir  Spd
km/h
Gust
km/h
Spd
kts
Gust
kts
29/08:00pm 27.5 25.1 19.0 59 5.5 NE 30 37 16 20 1015.6 1015.5 0.0
29/07:30pm 27.4 25.7 19.7 63 5.0 NE 28 33 15 18 1015.3 1015.2 0.0
29/07:00pm 27.3 25.5 19.6 62 5.0 ENE 28 32 15 17 1015.0 1014.9 0.0
29/06:30pm 27.5 25.7 19.6 62 5.1 ENE 28 32 15 17 1014.8 1014.7 0.0
29/06:00pm 27.7 25.0 19.2 60 5.5 ENE 32 39 17 21 1014.5 1014.4 0.0
29/05:30pm 27.9 25.1 19.1 58 5.7 ENE 32 37 17 20 1014.2 1014.1 0.0
29/05:00pm 28.1 25.5 19.9 61 5.4 ENE 33 39 18 21 1014.0 1013.9 0.0
29/04:30pm 28.5 25.2 20.0 60 5.6 ENE 37 44 20 24 1013.7 1013.6 0.0
29/04:00pm 28.4 24.7 19.9 60 5.6 ENE 39 44 21 24 1013.7 1013.6 0.0
29/03:30pm 28.7 24.8 19.6 58 5.9 ENE 39 48 21 26 1013.6 1013.5 0.0
29/03:00pm 28.7 25.1 20.2 60 5.6 ENE 39 48 21 26 1013.9 1013.8 0.0
29/02:30pm 28.8 24.2 19.7 58 5.9 E 43 52 23 28 1014.0 1013.9 0.0
29/02:00pm 28.7 23.5 18.8 55 6.4 E 44 54 24 29 1014.3 1014.2 0.0
29/01:30pm 28.8 23.7 19.1 55 6.3 E 44 56 24 30 1014.7 1014.6 0.0
29/01:00pm 29.5 24.5 18.9 53 6.9 E 43 52 23 28 1015.2 1015.1 0.0
29/12:30pm 29.4 25.1 20.3 58 6.0 E 43 56 23 30 1015.8 1015.7 0.0
29/12:00pm 29.0 24.3 19.9 58 6.0 E 44 54 24 29 1016.3 1016.2 0.0
29/11:39am 28.5 25.2 19.2 57 6.0 E 35 54 19 29 1016.4 1016.3 0.0
29/11:30am 28.5 25.0 19.7 59 5.7 E 37 44 20 24 1016.5 1016.4 0.0
29/11:00am 28.2 23.8 19.2 58 5.8 E 41 50 22 27 1016.6 1016.5 0.0
29/10:30am 27.8 23.0 18.5 57 5.9 E 41 50 22 27 1016.7 1016.6 0.0
29/10:00am 27.6 22.4 18.3 57 5.9 E 43 52 23 28 1016.7 1016.6 0.0
29/09:30am 27.3 20.9 16.9 53 6.5 E 46 56 25 30 1016.8 1016.7 0.0
29/09:00am 27.4 22.4 17.0 53 6.5 E 39 54 21 29 1016.5 1016.4 0.0
29/08:30am 27.5 21.9 17.4 54 6.3 ESE 43 54 23 29 1016.0 1015.9 0.0
29/08:00am 27.3 21.9 17.8 56 6.0 ESE 43 52 23 28 1015.8 1015.7 0.0
29/07:30am 27.2 22.3 17.4 55 6.1 ESE 39 48 21 26 1015.5 1015.4 0.0
29/07:00am 27.4 22.3 16.7 52 6.7 ESE 39 48 21 26 1015.1 1015.0 0.0
29/06:30am 27.4 23.0 17.6 55 6.2 ESE 37 43 20 23 1015.0 1014.9 0.0
29/06:00am 27.2 23.8 17.7 56 6.0 ESE 32 37 17 20 1015.0 1014.9 0.0
29/05:30am 27.1 23.7 17.8 56 5.9 ESE 32 39 17 21 1014.8 1014.7 0.0
29/05:00am 27.0 24.5 18.8 60 5.3 ESE 30 35 16 19 1014.5 1014.4 0.0
29/04:30am 26.9 25.1 19.5 64 4.8 ESE 28 33 15 18 1014.5 1014.4 0.0
29/04:00am 27.1 26.0 19.4 62 5.0 ESE 24 28 13 15 1014.6 1014.5 0.0
29/03:30am 27.0 26.8 20.6 68 4.2 ESE 22 26 12 14 1014.9 1014.8 0.0
29/03:00am 27.1 26.3 19.2 62 5.1 ESE 22 26 12 14 1015.1 1015.0 0.0
29/02:30am 27.3 27.3 20.1 64 4.7 E 20 24 11 13 1015.3 1015.2 0.0
29/02:00am 27.3 27.0 19.6 62 5.0 ESE 20 26 11 14 1015.5 1015.4 0.0
29/01:30am 27.2 27.0 20.5 67 4.4 E 22 26 12 14 1015.7 1015.6 0.0
29/01:00am 27.2 27.7 21.2 69 4.0 E 20 24 11 13 1015.7 1015.6 0.0
29/12:30am 27.4 27.7 20.7 67 4.4 E 20 24 11 13 1015.9 1015.8 0.0
29/12:00am 27.3 27.9 21.3 69 4.0 E 20 24 11 13 1016.0 1015.9 0.0
 
Date/Time
CST
Temp
°C
App
Temp
°C
Dew
Point
°C
Rel
Hum
%
Delta-T
°C
Wind Press
QNH
hPa
Press
MSL
hPa
Rain since
9am
mm
Dir  Spd
km/h
Gust
km/h
Spd
kts
Gust
kts
28/11:30pm 27.2 26.8 21.0 69 4.1 E 24 28 13 15 1016.1 1016.0 0.0
28/11:00pm 27.1 26.2 21.4 71 3.8 E 28 32 15 17 1016.3 1016.2 0.0
28/10:30pm 27.3 26.1 21.6 71 3.8 E 30 35 16 19 1016.4 1016.3 0.0
28/10:00pm 27.4 26.0 21.9 72 3.7 E 32 37 17 20 1016.2 1016.1 0.0
28/09:30pm 27.4 25.7 21.4 70 4.0 E 32 37 17 20 1016.1 1016.0 0.0
28/09:00pm 27.4 25.5 21.0 68 4.2 E 32 37 17 20 1016.0 1015.9 0.0
28/08:30pm 27.5 25.7 21.5 70 4.0 E 33 39 18 21 1015.7 1015.6 0.0
28/08:00pm 27.6 25.8 21.6 70 4.0 ENE 33 41 18 22 1015.2 1015.1 0.0
28/07:30pm 27.7 26.0 21.7 70 4.0 ENE 33 41 18 22 1014.8 1014.7 0.0
28/07:00pm 27.9 25.8 22.4 72 3.7 ENE 37 44 20 24 1014.2 1014.1 0.0
28/06:30pm 28.0 25.8 21.5 67 4.3 ENE 35 43 19 23 1013.9 1013.8 0.0
28/06:00pm 28.5 26.6 22.0 68 4.4 ENE 35 43 19 23 1013.6 1013.5 0.0
28/05:30pm 28.9 26.9 21.9 66 4.7 ENE 35 43 19 23 1013.3 1013.2 0.0
28/05:00pm 29.2 27.4 22.2 66 4.7 ENE 35 41 19 22 1013.0 1012.9 0.0
28/04:30pm 29.2 27.8 22.2 66 4.7 ENE 33 41 18 22 1012.9 1012.8 0.0
28/04:00pm 29.8 28.7 22.8 66 4.8 ENE 33 39 18 21 1012.8 1012.7 0.0
28/03:30pm 29.9 28.7 22.6 65 5.0 ENE 33 39 18 21 1012.8 1012.7 0.0
28/03:00pm 29.7 28.6 22.4 65 5.0 E 32 41 17 22 1013.0 1012.9 0.0
28/02:30pm 30.1 28.2 22.0 62 5.5 ENE 35 41 19 22 1013.1 1013.0 0.0
28/02:00pm 30.1 28.2 22.0 62 5.5 E 35 43 19 23 1013.4 1013.3 0.0
28/01:30pm 30.7 28.5 21.5 58 6.2 E 35 41 19 22 1013.6 1013.5 0.0
28/01:00pm 31.0 28.8 21.5 57 6.4 E 35 41 19 22 1014.0 1013.9 0.0
28/12:30pm 30.1 28.2 20.1 55 6.6 E 30 37 16 20 1014.4 1014.3 0.0
28/12:00pm 30.2 28.6 20.7 56 6.3 ESE 30 39 16 21 1014.6 1014.5 0.0
28/11:30am 29.6 25.8 19.0 53 6.9 ESE 37 44 20 24 1014.8 1014.7 0.0
28/11:00am 29.2 24.6 18.0 51 7.1 ESE 39 48 21 26 1014.8 1014.7 0.0
28/10:30am 28.6 23.4 17.5 51 7.0 ESE 41 48 22 26 1014.9 1014.8 0.0
28/10:00am 28.2 23.0 17.4 52 6.8 ESE 41 52 22 28 1014.7 1014.6 0.0
28/09:30am 28.0 22.6 17.8 54 6.5 ESE 43 52 23 28 1014.4 1014.3 0.0
28/09:00am 27.8 23.0 17.6 53 6.4 E 39 48 21 26 1014.2 1014.1 0.0
28/08:30am 27.5 22.6 17.4 54 6.3 ESE 39 44 21 24 1013.8 1013.7 0.0
28/08:00am 27.2 21.9 16.2 51 6.8 ESE 39 48 21 26 1013.4 1013.3 0.0
28/07:30am 27.4 22.3 16.7 52 6.7 ESE 39 46 21 25 1013.3 1013.2 0.0
28/07:00am 27.6 24.0 17.7 54 6.3 ESE 33 43 18 23 1012.9 1012.8 0.0
28/06:30am 27.6 23.6 17.7 54 6.3 ESE 35 41 19 22 1012.6 1012.5 0.0
28/06:00am 27.6 24.0 17.2 53 6.5 ESE 32 37 17 20 1012.4 1012.3 0.0
28/05:30am 27.6 26.1 18.6 58 5.8 ESE 24 32 13 17 1012.3 1012.2 0.0
28/05:00am 27.7 25.4 17.5 53 6.4 ESE 26 30 14 16 1012.2 1012.1 0.0
28/04:30am 27.6 26.0 18.3 57 5.9 ESE 24 28 13 15 1012.3 1012.2 0.0
28/04:00am 27.7 27.1 19.8 62 5.1 ESE 22 28 12 15 1012.3 1012.2 0.0
28/03:30am 27.4 26.6 19.2 61 5.3 ESE 22 26 12 14 1012.5 1012.4 0.0
28/03:00am 27.9 28.1 20.5 64 4.9 ESE 20 24 11 13 1012.7 1012.6 0.0
28/02:30am 27.9 26.9 19.7 61 5.3 ESE 24 28 13 15 1013.1 1013.0 0.0
28/02:00am 28.2 27.4 20.0 61 5.4 E 24 28 13 15 1013.4 1013.3 0.0
28/01:30am 28.4 27.7 20.2 61 5.4 E 24 28 13 15 1013.6 1013.5 0.0
28/01:00am 28.4 27.0 19.6 59 5.7 E 26 30 14 16 1013.7 1013.6 0.0
28/12:30am 28.5 26.8 19.7 59 5.7 E 28 32 15 17 1013.8 1013.7 0.0
28/12:00am 28.5 26.8 19.7 59 5.7 E 28 33 15 18 1013.9 1013.8 0.0
 
Date/Time
CST
Temp
°C
App
Temp
°C
Dew
Point
°C
Rel
Hum
%
Delta-T
°C
Wind Press
QNH
hPa
Press
MSL
hPa
Rain since
9am
mm
Dir  Spd
km/h
Gust
km/h
Spd
kts
Gust
kts
27/11:30pm 28.6 27.0 20.1 60 5.6 E 28 35 15 19 1014.2 1014.1 0.0
27/11:00pm 28.8 26.4 20.0 59 5.8 E 32 39 17 21 1014.3 1014.2 0.0
27/10:30pm 28.9 25.6 19.2 55 6.3 ENE 35 41 19 22 1014.2 1014.1 0.0
27/10:00pm 28.8 26.4 20.0 59 5.8 ENE 32 39 17 21 1014.0 1013.9 0.0
27/09:30pm 28.7 26.0 20.4 60 5.5 ENE 35 39 19 21 1013.9 1013.8 0.0
27/09:00pm 28.8 25.9 20.0 59 5.8 ENE 35 41 19 22 1013.6 1013.5 0.0
27/08:30pm 28.7 25.6 19.6 58 5.9 ENE 35 43 19 23 1013.2 1013.1 0.0
27/08:00pm 28.4 25.4 20.7 63 5.1 ENE 37 43 20 23 1012.8 1012.7 0.0
27/07:30pm 28.4 25.7 21.2 65 4.8 ENE 37 43 20 23 1012.3 1012.2 0.0
27/07:00pm 28.3 25.5 21.1 65 4.8 ENE 37 44 20 24 1012.0 1011.9 0.0
27/06:30pm 28.2 26.0 22.2 70 4.0 ENE 37 46 20 25 1011.7 1011.6 0.0
27/06:00pm 28.7 27.2 22.7 70 4.1 ENE 35 43 19 23 1011.4 1011.3 0.0
27/05:30pm 28.7 26.5 22.2 68 4.4 ENE 37 44 20 24 1011.1 1011.0 0.0
27/05:00pm 29.0 27.5 22.0 66 4.7 ENE 33 39 18 21 1010.9 1010.8 0.0
27/04:30pm 29.3 27.8 22.0 64 4.9 ENE 33 43 18 23 1010.9 1010.8 0.0
27/04:00pm 29.4 27.8 21.6 63 5.2 ENE 32 39 17 21 1010.8 1010.7 0.0
27/03:30pm 29.7 27.7 20.8 58 5.9 ENE 32 39 17 21 1011.0 1010.9 0.0
27/03:00pm 30.5 29.0 21.0 57 6.3 ENE 30 37 16 20 1011.3 1011.2 0.0
27/02:30pm 30.8 29.6 20.1 53 7.1 ENE 26 32 14 17 1011.5 1011.4 0.0
27/02:00pm 30.8 30.9 19.2 50 7.6 E 17 20 9 11 1012.0 1011.9 0.0
27/01:30pm 30.9 31.3 19.9 52 7.2 E 17 20 9 11 1012.4 1012.3 0.0
27/01:00pm 30.8 30.7 19.5 51 7.4 E 19 24 10 13 1012.7 1012.6 0.0
27/12:30pm 30.8 30.7 19.5 51 7.4 E 19 22 10 12 1013.0 1012.9 0.0
27/12:00pm 30.9 30.5 20.2 53 7.1 ESE 22 26 12 14 1013.2 1013.1 0.0
27/11:30am 30.4 30.2 20.6 55 6.5 ESE 22 28 12 15 1013.3 1013.2 0.0
27/11:00am 30.0 30.5 21.1 59 5.9 ESE 20 26 11 14 1013.4 1013.3 0.0
27/10:30am 29.3 29.7 21.8 64 5.0 ESE 22 28 12 15 1013.5 1013.4 0.0
27/10:00am 28.3 28.1 22.1 69 4.2 ESE 26 30 14 16 1013.7 1013.6 0.0
27/09:30am 27.9 28.7 23.1 75 3.3 SE 24 30 13 16 1013.5 1013.4 0.0
27/09:00am 28.1 30.4 23.5 76 3.2 SE 17 20 9 11 1013.2 1013.1 0.0
27/08:30am 27.6 30.6 23.4 78 2.9 SE 13 15 7 8 1012.9 1012.8 0.0
27/08:00am 26.4 29.4 21.2 73 3.4 SE 7 9 4 5 1012.7 1012.6 0.0
27/07:30am 26.2 30.3 20.8 72 3.6 CALM 0 0 0 0 1012.5 1012.4 0.0
27/07:00am 26.4 30.5 20.7 71 3.7 CALM 0 0 0 0 1012.3 1012.2 0.0
27/06:30am 26.2 30.1 20.3 70 3.9 CALM 0 0 0 0 1012.3 1012.2 0.0
27/06:00am 26.6 29.5 20.7 70 3.9 NW 6 7 3 4 1012.2 1012.1 0.0
27/05:30am 26.6 29.7 20.2 68 4.2 WNW 4 6 2 3 1012.2 1012.1 0.0
27/05:00am 26.4 29.3 20.7 71 3.7 W 6 7 3 4 1012.1 1012.0 0.0
27/04:30am 26.4 29.6 21.2 73 3.4 WNW 6 7 3 4 1012.0 1011.9 0.0
27/04:00am 26.4 29.7 21.4 74 3.3 WNW 6 7 3 4 1012.0 1011.9 0.0
27/03:30am 26.5 29.7 21.3 73 3.5 WNW 6 7 3 4 1012.1 1012.0 0.0
27/03:00am 26.6 29.5 21.1 72 3.6 WNW 7 9 4 5 1012.4 1012.3 0.0
27/02:30am 26.6 29.4 20.9 71 3.8 WNW 7 9 4 5 1012.9 1012.8 0.0
27/02:00am 27.0 30.1 21.1 70 3.9 WNW 6 7 3 4 1013.2 1013.1 0.0
27/01:30am 26.9 30.3 21.6 72 3.5 W 6 6 3 3 1013.3 1013.2 0.0
27/01:00am 26.5 30.1 22.3 78 2.8 W 7 9 4 5 1013.3 1013.2 0.0
27/12:30am 26.6 30.1 21.8 75 3.2 NNE 6 6 3 3 1013.4 1013.3 0.0
27/12:00am 27.4 30.1 21.4 70 4.0 NNE 9 9 5 5 1013.4 1013.3 0.0
 
Date/Time
CST
Temp
°C
App
Temp
°C
Dew
Point
°C
Rel
Hum
%
Delta-T
°C
Wind Press
QNH
hPa
Press
MSL
hPa
Rain since
9am
mm
Dir  Spd
km/h
Gust
km/h
Spd
kts
Gust
kts
26/11:30pm 27.1 29.3 21.2 70 3.9 NNE 11 11 6 6 1013.4 1013.3 0.0
26/11:00pm 27.9 31.1 21.7 69 4.2 N 7 9 4 5 1013.5 1013.4 0.0
26/10:30pm 28.2 31.0 21.5 67 4.5 N 9 11 5 6 1013.2 1013.1 0.0
26/10:00pm 28.1 30.7 21.9 69 4.2 N 11 13 6 7 1012.9 1012.8 0.0

Other Formats:

Comma delimited format used in spreadsheet applications
http://www.bom.gov.au/fwo/IDD60801/IDD60801.94102.axf

JavaScript Object Notation format (JSON) in row-major order
http://www.bom.gov.au/fwo/IDD60801/IDD60801.94102.json